createdAt,value
2019-05-20T00:01:27.836Z,14.99
2019-05-20T00:03:56.263Z,14.87
2019-05-20T00:06:24.690Z,15.02
2019-05-20T00:08:53.146Z,14.89
2019-05-20T00:11:21.580Z,14.88
2019-05-20T00:13:50.052Z,14.74
2019-05-20T00:16:18.509Z,14.68
2019-05-20T00:18:47.078Z,14.74
2019-05-20T00:21:15.605Z,14.73
2019-05-20T00:23:44.074Z,14.95
2019-05-20T00:26:12.507Z,15.41
2019-05-20T00:28:40.936Z,15.09
2019-05-20T00:31:09.516Z,14.80
2019-05-20T00:33:37.951Z,14.72
2019-05-20T00:36:06.406Z,14.70
2019-05-20T00:38:34.907Z,14.96
2019-05-20T00:41:03.406Z,14.78
2019-05-20T00:43:31.880Z,14.81
2019-05-20T00:46:00.433Z,14.73
2019-05-20T00:48:28.862Z,14.61
2019-05-20T00:50:57.359Z,14.59
2019-05-20T00:53:25.889Z,14.67
2019-05-20T00:55:54.456Z,14.53
2019-05-20T00:58:22.907Z,14.56
2019-05-20T01:00:51.369Z,14.66
2019-05-20T01:03:19.869Z,14.58
2019-05-20T01:05:48.308Z,14.61
2019-05-20T01:08:16.826Z,14.48
2019-05-20T01:10:45.276Z,14.70
2019-05-20T01:13:13.952Z,14.74
2019-05-20T01:15:42.502Z,14.80
2019-05-20T01:18:10.999Z,14.72
2019-05-20T01:20:39.436Z,15.01
2019-05-20T01:23:07.970Z,14.71
2019-05-20T01:25:36.402Z,14.65
2019-05-20T01:28:04.968Z,14.53
2019-05-20T01:30:33.426Z,14.42
2019-05-20T01:33:13.224Z,14.41
2019-05-20T01:35:32.082Z,14.36
2019-05-20T01:38:00.574Z,14.43
2019-05-20T01:40:29.001Z,14.38
2019-05-20T01:42:57.465Z,14.33
2019-05-20T01:45:26.057Z,14.20
2019-05-20T01:47:54.490Z,14.14
2019-05-20T01:50:22.921Z,14.03
2019-05-20T01:52:51.528Z,14.03
2019-05-20T01:55:20.141Z,14.06
2019-05-20T01:57:48.608Z,14.12
2019-05-20T02:00:17.310Z,14.09
2019-05-20T02:02:45.734Z,14.06
2019-05-20T02:05:14.297Z,14.19
2019-05-20T02:07:42.763Z,14.32
2019-05-20T02:10:11.637Z,14.17
2019-05-20T02:12:40.305Z,14.15
2019-05-20T02:15:29.310Z,14.14
2019-05-20T02:17:57.818Z,14.42
2019-05-20T02:20:26.331Z,14.14
2019-05-20T02:22:56.504Z,13.84
2019-05-20T02:25:25.039Z,13.73
2019-05-20T02:27:53.539Z,14.07
2019-05-20T02:30:22.147Z,14.47
2019-05-20T02:32:50.577Z,14.78
2019-05-20T02:35:19.096Z,14.46
2019-05-20T02:37:47.716Z,14.95
2019-05-20T02:40:16.608Z,15.04
2019-05-20T02:42:45.036Z,15.03
2019-05-20T02:45:13.855Z,14.62
2019-05-20T02:47:42.291Z,14.46
2019-05-20T02:50:11.162Z,14.77
2019-05-20T02:52:39.623Z,14.71
2019-05-20T02:55:08.548Z,14.70
2019-05-20T02:57:37.002Z,14.59
2019-05-20T03:00:08.937Z,14.56
2019-05-20T03:02:37.381Z,14.43
2019-05-20T03:05:06.945Z,14.37
2019-05-20T03:07:35.520Z,14.34
2019-05-20T03:10:05.674Z,14.26
2019-05-20T03:12:34.247Z,14.42
2019-05-20T03:15:03.058Z,14.24
2019-05-20T03:17:31.488Z,14.25
2019-05-20T03:19:59.915Z,14.32
2019-05-20T03:22:28.484Z,14.19
2019-05-20T03:24:56.979Z,14.13
2019-05-20T03:27:26.929Z,14.23
2019-05-20T03:29:55.512Z,14.18
2019-05-20T03:32:23.945Z,14.07
2019-05-20T03:34:59.444Z,14.18
2019-05-20T03:37:22.733Z,14.21
2019-05-20T03:39:51.214Z,14.08
2019-05-20T03:42:19.624Z,14.08
2019-05-20T03:44:48.273Z,14.03
2019-05-20T03:47:16.732Z,14.04
2019-05-20T03:49:45.227Z,14.06
2019-05-20T03:52:13.909Z,13.99
2019-05-20T03:54:42.345Z,14.03
2019-05-20T03:57:10.795Z,14.19
2019-05-20T03:59:39.332Z,14.14
2019-05-20T04:02:07.840Z,14.15
2019-05-20T04:04:36.292Z,14.16
2019-05-20T04:07:04.899Z,14.16
2019-05-20T04:09:33.333Z,14.19
2019-05-20T04:12:01.773Z,14.26
2019-05-20T04:14:30.321Z,13.97
2019-05-20T04:16:58.777Z,14.28
2019-05-20T04:19:27.203Z,14.27
2019-05-20T04:21:55.784Z,14.20
2019-05-20T04:24:24.277Z,14.46
2019-05-20T04:26:58.469Z,14.49
2019-05-20T04:29:26.987Z,14.37
2019-05-20T04:31:56.248Z,14.37
2019-05-20T04:34:24.959Z,14.31
2019-05-20T04:36:53.501Z,14.27
2019-05-20T04:39:21.999Z,14.49
2019-05-20T04:41:50.562Z,14.70
2019-05-20T04:44:19.300Z,14.48
2019-05-20T04:46:47.805Z,14.30
2019-05-20T04:49:16.232Z,14.46
2019-05-20T04:51:44.686Z,14.50
2019-05-20T04:54:13.455Z,14.53
2019-05-20T04:56:41.937Z,14.46
2019-05-20T04:59:10.369Z,14.67
2019-05-20T05:01:38.944Z,14.70
2019-05-20T05:04:07.645Z,14.84
2019-05-20T05:06:36.955Z,14.99
2019-05-20T05:09:07.402Z,14.84
2019-05-20T05:11:36.266Z,14.99
2019-05-20T05:14:05.073Z,15.34
2019-05-20T05:16:33.577Z,15.15
2019-05-20T05:19:02.081Z,15.13
2019-05-20T05:21:30.721Z,15.35
2019-05-20T05:23:59.699Z,15.25
2019-05-20T05:26:28.314Z,15.27
2019-05-20T05:28:56.923Z,15.34
2019-05-20T05:31:25.433Z,15.22
2019-05-20T05:33:54.510Z,15.50
2019-05-20T05:36:23.323Z,15.49
2019-05-20T05:38:51.863Z,15.41
2019-05-20T05:41:20.442Z,15.42
2019-05-20T05:43:49.082Z,15.37
2019-05-20T05:46:17.580Z,15.58
2019-05-20T05:48:46.018Z,15.64
2019-05-20T05:51:14.726Z,15.75
2019-05-20T05:53:43.242Z,15.68
2019-05-20T05:56:11.666Z,15.90
2019-05-20T05:58:40.165Z,15.77
2019-05-20T06:01:08.776Z,16.11
2019-05-20T06:03:37.273Z,15.92
2019-05-20T06:06:12.388Z,16.04
2019-05-20T06:08:36.017Z,16.09
2019-05-20T06:11:04.457Z,16.39
2019-05-20T06:13:32.941Z,16.25
2019-05-20T06:16:01.400Z,16.16
2019-05-20T06:18:29.929Z,16.08
2019-05-20T06:20:58.413Z,16.23
2019-05-20T06:23:26.912Z,16.18
2019-05-20T06:25:55.346Z,15.99
2019-05-20T06:28:23.909Z,16.15
2019-05-20T06:30:52.585Z,16.16
2019-05-20T06:33:21.016Z,16.23
2019-05-20T06:35:49.813Z,16.19
2019-05-20T06:38:20.325Z,16.26
2019-05-20T06:40:48.805Z,16.27
2019-05-20T06:43:17.414Z,16.39
2019-05-20T06:45:45.924Z,16.50
2019-05-20T06:48:14.378Z,16.49
2019-05-20T06:50:42.993Z,16.38
2019-05-20T06:53:11.420Z,16.40
2019-05-20T06:55:39.855Z,16.38
2019-05-20T06:58:08.433Z,16.34
2019-05-20T07:00:38.938Z,16.16
2019-05-20T07:03:08.120Z,16.32
2019-05-20T07:05:36.665Z,16.26
2019-05-20T07:08:05.331Z,16.18
2019-05-20T07:10:33.902Z,16.20
2019-05-20T07:13:02.526Z,16.04
2019-05-20T07:15:31.171Z,16.10
2019-05-20T07:17:59.632Z,15.98
2019-05-20T07:20:28.144Z,15.85
2019-05-20T07:22:57.232Z,15.79
2019-05-20T07:25:25.890Z,15.64
2019-05-20T07:27:54.409Z,15.87
2019-05-20T07:30:22.911Z,15.93
2019-05-20T07:32:51.543Z,15.85
2019-05-20T07:35:30.321Z,15.84
2019-05-20T07:37:50.364Z,15.84
2019-05-20T07:40:30.381Z,15.81
2019-05-20T07:42:59.067Z,15.95
2019-05-20T07:45:29.858Z,16.05
2019-05-20T07:47:58.850Z,15.88
2019-05-20T07:50:28.121Z,15.96
2019-05-20T07:53:00.338Z,16.05
2019-05-20T07:55:30.456Z,16.04
2019-05-20T07:58:01.976Z,16.24
2019-05-20T08:00:30.611Z,16.32
2019-05-20T08:02:59.216Z,16.35
2019-05-20T08:05:27.717Z,16.27
2019-05-20T08:07:56.255Z,16.27
2019-05-20T08:10:24.861Z,16.42
2019-05-20T08:12:53.451Z,16.43
2019-05-20T08:15:22.054Z,16.52
2019-05-20T08:17:50.590Z,16.77
2019-05-20T08:20:19.160Z,16.56
2019-05-20T08:22:47.732Z,16.74
2019-05-20T08:25:17.023Z,16.83
2019-05-20T08:27:45.532Z,16.78
2019-05-20T08:30:15.611Z,16.60
2019-05-20T08:32:44.076Z,16.63
2019-05-20T08:35:13.054Z,16.61
2019-05-20T08:37:45.751Z,16.42
2019-05-20T08:40:11.958Z,16.56
2019-05-20T08:42:40.366Z,16.36
2019-05-20T08:45:09.253Z,16.24
2019-05-20T08:47:37.695Z,16.23
2019-05-20T08:50:10.974Z,16.26
2019-05-20T08:52:37.293Z,16.16
2019-05-20T08:55:07.001Z,16.18
2019-05-20T08:57:35.502Z,16.38
2019-05-20T09:00:05.388Z,16.33
2019-05-20T09:02:33.826Z,16.47
2019-05-20T09:05:02.291Z,16.39
2019-05-20T09:07:30.682Z,16.56
2019-05-20T09:09:59.149Z,16.70
2019-05-20T09:12:27.607Z,16.46
2019-05-20T09:14:56.021Z,16.57
2019-05-20T09:17:24.471Z,16.93
2019-05-20T09:19:53.080Z,16.87
2019-05-20T09:22:21.570Z,17.00
2019-05-20T09:24:50.386Z,16.99
2019-05-20T09:27:19.074Z,17.20
2019-05-20T09:29:47.576Z,17.23
2019-05-20T09:32:16.274Z,17.14
2019-05-20T09:34:45.209Z,17.38
2019-05-20T09:37:13.778Z,17.46
2019-05-20T09:39:42.227Z,17.59
2019-05-20T09:42:10.669Z,17.46
2019-05-20T09:44:39.123Z,17.55
2019-05-20T09:47:07.711Z,17.72
2019-05-20T09:49:36.180Z,18.07
2019-05-20T09:52:04.657Z,18.07
2019-05-20T09:54:33.198Z,18.33
2019-05-20T09:57:01.609Z,18.55
2019-05-20T09:59:42.552Z,18.93
2019-05-20T10:02:00.516Z,18.83
2019-05-20T10:04:28.954Z,18.93
2019-05-20T10:06:57.395Z,19.32
2019-05-20T10:09:26.040Z,18.98
2019-05-20T10:11:55.141Z,18.86
2019-05-20T10:14:23.644Z,18.93
2019-05-20T10:16:52.241Z,18.66
2019-05-20T10:19:20.690Z,18.53
2019-05-20T10:21:49.101Z,18.35
2019-05-20T10:24:17.563Z,18.10
2019-05-20T10:26:46.065Z,17.89
2019-05-20T10:29:14.588Z,17.73
2019-05-20T10:31:43.326Z,17.73
2019-05-20T10:34:11.750Z,17.36
2019-05-20T10:36:40.166Z,17.37
2019-05-20T10:39:08.894Z,17.14
2019-05-20T10:41:37.385Z,17.36
2019-05-20T10:44:05.963Z,17.25
2019-05-20T10:46:34.596Z,17.06
2019-05-20T10:49:03.133Z,17.10
2019-05-20T10:51:31.546Z,17.21
2019-05-20T10:54:00.010Z,17.15
2019-05-20T10:56:28.435Z,17.12
2019-05-20T10:58:56.875Z,17.02
2019-05-20T11:01:25.491Z,16.79
2019-05-20T11:03:53.925Z,16.93
2019-05-20T11:06:22.406Z,16.81
2019-05-20T11:08:50.848Z,16.98
2019-05-20T11:11:19.283Z,16.84
2019-05-20T11:13:47.726Z,16.99
2019-05-20T11:16:16.365Z,16.67
2019-05-20T11:18:44.802Z,16.58
2019-05-20T11:21:13.306Z,16.82
2019-05-20T11:23:41.866Z,16.61
2019-05-20T11:26:11.117Z,16.72
2019-05-20T11:28:39.556Z,16.61
2019-05-20T11:31:08.201Z,16.33
2019-05-20T11:33:36.631Z,16.45
2019-05-20T11:36:05.167Z,16.13
2019-05-20T11:38:33.740Z,16.12
2019-05-20T11:41:02.172Z,16.19
2019-05-20T11:43:30.604Z,16.19
2019-05-20T11:45:59.060Z,16.17
2019-05-20T11:48:27.728Z,16.04
2019-05-20T11:50:56.162Z,16.21
2019-05-20T11:53:24.717Z,16.15
2019-05-20T11:55:53.170Z,16.12
2019-05-20T11:58:21.714Z,16.23
2019-05-20T12:00:50.207Z,16.31
2019-05-20T12:03:18.706Z,16.35
2019-05-20T12:05:47.180Z,16.54
2019-05-20T12:08:15.704Z,16.26
2019-05-20T12:10:44.864Z,16.42
2019-05-20T12:13:13.296Z,16.59
2019-05-20T12:15:41.841Z,16.68
2019-05-20T12:18:10.278Z,16.56
2019-05-20T12:20:38.708Z,16.50
2019-05-20T12:23:07.175Z,16.47
2019-05-20T12:25:35.605Z,16.44
2019-05-20T12:28:04.118Z,16.70
2019-05-20T12:30:32.778Z,16.79
2019-05-20T12:33:18.006Z,16.72
2019-05-20T12:35:31.511Z,16.50
2019-05-20T12:38:00.109Z,16.83
2019-05-20T12:40:28.540Z,16.83
2019-05-20T12:42:56.978Z,16.72
2019-05-20T12:45:25.529Z,16.65
2019-05-20T12:47:54.275Z,16.70
2019-05-20T12:50:24.211Z,16.55
2019-05-20T12:52:52.774Z,16.51
2019-05-20T12:55:21.377Z,16.59
2019-05-20T12:57:49.810Z,16.58
2019-05-20T13:00:19.018Z,16.63
2019-05-20T13:02:47.454Z,16.63
2019-05-20T13:05:16.018Z,16.80
2019-05-20T13:07:44.751Z,16.78
2019-05-20T13:10:32.103Z,16.57
2019-05-20T13:12:43.881Z,16.86
2019-05-20T13:15:12.871Z,16.73
2019-05-20T13:17:44.703Z,16.80
2019-05-20T13:20:12.276Z,16.79
2019-05-20T13:22:40.799Z,16.73
2019-05-20T13:25:09.772Z,16.90
2019-05-20T13:27:38.194Z,16.92
2019-05-20T13:30:11.694Z,16.97
2019-05-20T13:32:40.123Z,17.07
2019-05-20T13:35:08.993Z,17.04
2019-05-20T13:37:38.135Z,17.03
2019-05-20T13:40:07.604Z,17.20
2019-05-20T13:42:36.313Z,17.17
2019-05-20T13:45:08.201Z,17.16
2019-05-20T13:47:36.789Z,17.25
2019-05-20T13:50:09.772Z,17.28
2019-05-20T13:52:38.391Z,17.07
2019-05-20T13:55:07.466Z,16.81
2019-05-20T13:57:35.964Z,16.85
2019-05-20T14:00:06.138Z,16.71
2019-05-20T14:02:34.717Z,16.77
2019-05-20T14:05:03.578Z,16.75
2019-05-20T14:07:32.200Z,16.68
2019-05-20T14:10:00.634Z,16.46
2019-05-20T14:12:29.146Z,16.51
2019-05-20T14:14:57.670Z,16.33
2019-05-20T14:17:26.135Z,16.36
2019-05-20T14:19:54.647Z,16.23
2019-05-20T14:22:23.119Z,16.21
2019-05-20T14:24:51.625Z,16.46
2019-05-20T14:27:20.126Z,16.33
2019-05-20T14:29:48.586Z,16.40
2019-05-20T14:32:17.119Z,16.44
2019-05-20T14:34:45.535Z,16.35
2019-05-20T14:37:14.078Z,16.38
2019-05-20T14:39:42.538Z,16.21
2019-05-20T14:42:11.088Z,16.34
2019-05-20T14:44:39.830Z,16.30
2019-05-20T14:47:08.266Z,16.40
2019-05-20T14:49:36.697Z,16.30
2019-05-20T14:52:06.046Z,16.29
2019-05-20T14:54:34.554Z,16.39
2019-05-20T14:57:02.995Z,16.25
2019-05-20T14:59:31.441Z,16.40
2019-05-20T15:01:59.972Z,16.37
2019-05-20T15:04:28.472Z,16.36
2019-05-20T15:06:57.077Z,16.39
2019-05-20T15:09:25.565Z,16.34
2019-05-20T15:11:53.950Z,16.39
2019-05-20T15:14:22.413Z,16.29
2019-05-20T15:16:50.918Z,16.26
2019-05-20T15:19:19.420Z,16.36
2019-05-20T15:21:47.972Z,16.39
2019-05-20T15:24:16.418Z,16.55
2019-05-20T15:26:44.951Z,16.57
2019-05-20T15:29:27.056Z,16.47
2019-05-20T15:31:43.711Z,16.56
2019-05-20T15:34:12.192Z,16.52
2019-05-20T15:36:40.729Z,16.64
2019-05-20T15:39:09.172Z,16.40
2019-05-20T15:41:37.608Z,16.60
2019-05-20T15:44:06.149Z,16.61
2019-05-20T15:46:34.652Z,16.61
2019-05-20T15:49:03.083Z,16.64
2019-05-20T15:51:31.740Z,16.50
2019-05-20T15:54:00.245Z,16.56
2019-05-20T15:56:28.759Z,16.53
2019-05-20T15:58:57.243Z,16.64
2019-05-20T16:01:25.696Z,16.59
2019-05-20T16:03:54.114Z,16.47
2019-05-20T16:06:22.583Z,16.58
2019-05-20T16:08:51.029Z,16.57
2019-05-20T16:11:19.462Z,16.70
2019-05-20T16:13:47.921Z,16.66
2019-05-20T16:16:16.366Z,16.48
2019-05-20T16:18:44.804Z,16.53
2019-05-20T16:21:13.405Z,16.45
2019-05-20T16:23:41.907Z,16.45
2019-05-20T16:26:10.375Z,16.59
2019-05-20T16:28:38.899Z,16.58
2019-05-20T16:31:07.439Z,16.54
2019-05-20T16:33:35.846Z,16.62
2019-05-20T16:36:04.442Z,16.58
2019-05-20T16:38:32.876Z,16.69
2019-05-20T16:41:01.311Z,16.54
2019-05-20T16:43:29.777Z,16.40
2019-05-20T16:45:58.283Z,16.33
2019-05-20T16:48:26.717Z,16.44
2019-05-20T16:50:55.362Z,16.31
2019-05-20T16:53:23.950Z,16.37
2019-05-20T16:55:52.454Z,16.37
2019-05-20T16:58:21.090Z,16.38
2019-05-20T17:00:49.522Z,16.25
2019-05-20T17:03:18.021Z,16.11
2019-05-20T17:05:46.673Z,16.05
2019-05-20T17:08:15.106Z,16.02
2019-05-20T17:10:43.573Z,16.13
2019-05-20T17:13:12.049Z,15.95
2019-05-20T17:15:40.487Z,16.03
2019-05-20T17:18:08.954Z,16.11
2019-05-20T17:20:37.443Z,16.17
2019-05-20T17:23:05.948Z,16.20
2019-05-20T17:25:34.401Z,16.29
2019-05-20T17:28:03.083Z,16.19
2019-05-20T17:30:44.353Z,16.17
2019-05-20T17:33:01.872Z,16.25
2019-05-20T17:35:30.329Z,16.22
2019-05-20T17:37:58.859Z,16.24
2019-05-20T17:40:27.419Z,16.25
2019-05-20T17:42:56.014Z,16.17
2019-05-20T17:45:24.613Z,16.21
2019-05-20T17:47:53.113Z,16.41
2019-05-20T17:50:21.971Z,16.36
2019-05-20T17:52:50.400Z,16.21
2019-05-20T17:55:18.912Z,16.08
2019-05-20T17:57:47.527Z,16.21
2019-05-20T18:00:17.970Z,16.21
2019-05-20T18:02:46.386Z,16.16
2019-05-20T18:05:15.176Z,16.35
2019-05-20T18:07:43.678Z,16.26
2019-05-20T18:10:12.823Z,16.16
2019-05-20T18:12:41.477Z,16.18
2019-05-20T18:15:10.549Z,16.08
2019-05-20T18:17:39.050Z,16.10
2019-05-20T18:20:08.047Z,16.11
2019-05-20T18:22:36.570Z,16.19
2019-05-20T18:25:07.013Z,16.04
2019-05-20T18:27:35.643Z,16.14
2019-05-20T18:30:06.114Z,16.17
2019-05-20T18:32:34.685Z,16.07
2019-05-20T18:35:03.524Z,15.89
2019-05-20T18:37:32.107Z,16.06
2019-05-20T18:40:13.403Z,15.95
2019-05-20T18:42:30.820Z,15.91
2019-05-20T18:44:59.267Z,16.11
2019-05-20T18:47:28.009Z,16.05
2019-05-20T18:49:56.854Z,15.78
2019-05-20T18:52:25.306Z,15.74
2019-05-20T18:54:53.821Z,15.93
2019-05-20T18:57:22.478Z,15.85
2019-05-20T18:59:51.028Z,16.00
2019-05-20T19:02:19.539Z,15.83
2019-05-20T19:04:48.024Z,16.05
2019-05-20T19:07:16.567Z,15.96
2019-05-20T19:09:45.454Z,16.09
2019-05-20T19:12:14.064Z,15.99
2019-05-20T19:14:42.685Z,15.93
2019-05-20T19:17:11.333Z,16.00
2019-05-20T19:19:39.917Z,15.80
2019-05-20T19:22:08.477Z,15.86
2019-05-20T19:24:36.918Z,15.83
2019-05-20T19:27:05.952Z,15.84
2019-05-20T19:29:34.538Z,15.82
2019-05-20T19:32:03.257Z,15.75
2019-05-20T19:34:31.810Z,15.87
2019-05-20T19:37:00.318Z,15.87
2019-05-20T19:39:28.900Z,15.73
2019-05-20T19:41:57.448Z,15.88
2019-05-20T19:44:26.038Z,15.80
2019-05-20T19:46:54.588Z,15.83
2019-05-20T19:49:23.037Z,15.77
2019-05-20T19:51:51.518Z,15.63
2019-05-20T19:54:19.964Z,15.85
2019-05-20T19:56:48.661Z,15.79
2019-05-20T19:59:17.104Z,15.72
2019-05-20T20:01:45.718Z,15.77
2019-05-20T20:04:14.241Z,15.72
2019-05-20T20:06:42.671Z,15.57
2019-05-20T20:09:11.104Z,15.56
2019-05-20T20:11:39.644Z,15.69
2019-05-20T20:14:08.084Z,15.79
2019-05-20T20:16:36.554Z,15.64
2019-05-20T20:19:05.200Z,15.74
2019-05-20T20:21:33.632Z,15.62
2019-05-20T20:24:02.105Z,15.70
2019-05-20T20:26:30.564Z,15.68
2019-05-20T20:28:58.993Z,15.62
2019-05-20T20:31:27.531Z,15.63
2019-05-20T20:33:56.106Z,15.61
2019-05-20T20:36:24.537Z,15.69
2019-05-20T20:38:53.113Z,15.61
2019-05-20T20:41:21.888Z,15.68
2019-05-20T20:43:50.390Z,15.76
2019-05-20T20:46:18.818Z,15.79
2019-05-20T20:48:47.355Z,15.82
2019-05-20T20:51:15.799Z,15.69
2019-05-20T20:53:44.238Z,15.53
2019-05-20T20:56:24.923Z,15.57
2019-05-20T20:58:42.990Z,15.55
2019-05-20T21:01:11.421Z,15.64
2019-05-20T21:03:39.996Z,15.56
2019-05-20T21:06:08.518Z,15.43
2019-05-20T21:08:36.949Z,15.40
2019-05-20T21:11:05.481Z,15.37
2019-05-20T21:13:33.914Z,15.38
2019-05-20T21:16:02.412Z,15.46
2019-05-20T21:18:30.873Z,15.41
2019-05-20T21:20:59.309Z,15.44
2019-05-20T21:23:27.759Z,15.39
2019-05-20T21:25:56.294Z,15.39
2019-05-20T21:28:24.799Z,15.37
2019-05-20T21:30:53.229Z,15.37
2019-05-20T21:33:21.876Z,15.34
2019-05-20T21:35:50.311Z,15.48
2019-05-20T21:38:18.819Z,15.36
2019-05-20T21:40:47.325Z,15.29
2019-05-20T21:43:15.764Z,15.38
2019-05-20T21:45:44.198Z,15.39
2019-05-20T21:48:12.661Z,15.40
2019-05-20T21:50:41.161Z,15.32
2019-05-20T21:53:09.661Z,15.41
2019-05-20T21:55:38.210Z,15.51
2019-05-20T21:58:06.651Z,15.51
2019-05-20T22:00:37.200Z,15.54
2019-05-20T22:03:05.722Z,15.58
2019-05-20T22:05:34.231Z,15.51
2019-05-20T22:08:04.212Z,15.51
2019-05-20T22:10:32.804Z,15.43
2019-05-20T22:13:01.233Z,15.48
2019-05-20T22:15:29.665Z,15.31
2019-05-20T22:17:58.131Z,15.37
2019-05-20T22:20:26.662Z,15.20
2019-05-20T22:23:12.866Z,15.18
2019-05-20T22:25:41.388Z,15.18
2019-05-20T22:28:12.772Z,15.49
2019-05-20T22:30:40.005Z,15.63
2019-05-20T22:33:08.443Z,15.23
2019-05-20T22:35:37.726Z,15.15
2019-05-20T22:38:06.311Z,15.12
2019-05-20T22:40:34.810Z,15.17
2019-05-20T22:43:03.258Z,15.15
2019-05-20T22:45:33.064Z,15.35
2019-05-20T22:48:01.644Z,15.36
2019-05-20T22:50:30.077Z,15.53
2019-05-20T22:52:58.706Z,15.51
2019-05-20T22:55:27.216Z,15.39
2019-05-20T22:57:55.642Z,15.28
2019-05-20T23:00:24.185Z,15.17
2019-05-20T23:02:52.696Z,15.05
2019-05-20T23:05:21.150Z,15.11
2019-05-20T23:07:49.677Z,15.11
2019-05-20T23:10:18.454Z,15.16
2019-05-20T23:12:46.892Z,15.32
2019-05-20T23:15:15.501Z,15.48
2019-05-20T23:17:44.012Z,15.35
2019-05-20T23:20:12.792Z,15.39
2019-05-20T23:22:41.250Z,15.44
2019-05-20T23:25:09.796Z,15.43
2019-05-20T23:27:38.368Z,15.42
2019-05-20T23:30:10.560Z,15.62
2019-05-20T23:32:39.025Z,15.37
2019-05-20T23:35:07.803Z,15.48
2019-05-20T23:37:37.781Z,15.43
2019-05-20T23:40:07.186Z,15.33
2019-05-20T23:42:35.619Z,15.43
2019-05-20T23:45:06.620Z,15.31
2019-05-20T23:47:35.066Z,15.38
2019-05-20T23:50:03.833Z,15.37
2019-05-20T23:52:32.299Z,15.67
2019-05-20T23:55:00.729Z,15.37
2019-05-20T23:57:29.229Z,15.36
2019-05-20T23:59:57.759Z,15.41
